Aviation Digital Data Service (ADDS)

Output produced by METARs form (0609 UTC 03 July 2022)
found at http://www.aviationweather.gov/metar/data/
 
METAR text: LFMY 030600Z AUTO 36002KT CAVOK 20/09 Q1018
Conditions at: LFMY (SALON (FAFB) , FR) observed 0600 UTC 03 July 2022
Temperature: 20.0°C (68°F)
Dewpoint: 9.0°C (48°F) [RH = 49%]
Pressure (altimeter): 30.06 inches Hg (1018.0 mb)
Winds: from the N (360 degrees) at 2 MPH (2 knots; 1.0 m/s)
Visibility: 6 or more miles (10+ km)
Ceiling: ceiling and visibility are OK
Clouds: unknown
Weather: no significant weather observed at this time

METAR text: LFMY 030530Z AUTO 00000KT CAVOK 18/10 Q1018
Conditions at: LFMY (SALON (FAFB) , FR) observed 0530 UTC 03 July 2022
Temperature: 18.0°C (64°F)
Dewpoint: 10.0°C (50°F) [RH = 59%]
Pressure (altimeter): 30.06 inches Hg (1018.0 mb)
Winds: calm
Visibility: 6 or more miles (10+ km)
Ceiling: ceiling and visibility are OK
Clouds: unknown
Weather: no significant weather observed at this time